Terminal Aerodrome Forecast
Issued by NWS

Home | Current Version | Previous Version | Text Only | Print | Product List | Glossary On
Versions: 1 2 3 4 5 6 7 8 9 10 11 12 13
000
FTUS44 KJAN 290500
TAFGTR
TAF
KGTR 290520Z 2906/3006 16006KT P6SM SCT250
     FM291500 21011G17KT P6SM BKN020
     FM292200 31008KT P6SM BKN025=

USA.gov is the U.S. government's official web portal to all federal, state and local government web resources and services.